createdAt,value
2022-11-25T00:01:34.394Z,12.20
2022-11-25T00:04:02.927Z,13.65
2022-11-25T00:06:36.223Z,20.83
2022-11-25T00:09:07.635Z,17.13
2022-11-25T00:11:37.932Z,16.52
2022-11-25T00:14:12.238Z,25.38
2022-11-25T00:16:43.733Z,18.05
2022-11-25T00:19:16.990Z,12.80
2022-11-25T00:21:45.363Z,19.48
2022-11-25T00:24:16.152Z,15.18
2022-11-25T00:26:44.550Z,11.82
2022-11-25T00:29:14.299Z,18.45
2022-11-25T00:31:42.778Z,17.50
2022-11-25T00:34:13.910Z,19.35
2022-11-25T00:36:42.950Z,21.80
2022-11-25T00:39:17.450Z,13.40
2022-11-25T00:42:05.462Z,20.33
2022-11-25T00:44:37.786Z,17.77
2022-11-25T00:47:15.426Z,19.15
2022-11-25T00:49:52.606Z,20.52
2022-11-25T00:52:24.434Z,18.38
2022-11-25T00:54:53.772Z,14.77
2022-11-25T00:57:23.649Z,15.07
2022-11-25T00:59:52.098Z,18.98
2022-11-25T01:02:23.206Z,23.85
2022-11-25T01:04:51.752Z,20.58
2022-11-25T01:07:20.225Z,17.33
2022-11-25T01:09:49.365Z,18.63
2022-11-25T01:12:17.830Z,14.50
2022-11-25T01:14:46.173Z,13.45
2022-11-25T01:17:16.069Z,13.90
2022-11-25T01:19:44.798Z,21.23
2022-11-25T01:22:13.299Z,12.68
2022-11-25T01:24:44.233Z,17.13
2022-11-25T01:27:12.505Z,22.38
2022-11-25T01:29:42.987Z,20.42
2022-11-25T01:32:11.448Z,17.73
2022-11-25T01:34:40.340Z,13.90
2022-11-25T01:37:08.805Z,16.38
2022-11-25T01:39:38.827Z,13.15
2022-11-25T01:42:07.880Z,15.27
2022-11-25T01:44:43.530Z,25.55
2022-11-25T01:47:24.424Z,15.38
2022-11-25T01:50:05.434Z,18.23
2022-11-25T01:52:41.546Z,16.98
2022-11-25T01:55:12.955Z,22.35
2022-11-25T01:57:46.300Z,17.73
2022-11-25T02:00:15.638Z,12.30
2022-11-25T02:02:49.601Z,16.92
2022-11-25T02:05:21.810Z,16.30
2022-11-25T02:07:53.325Z,25.75
2022-11-25T02:10:26.833Z,18.73
2022-11-25T02:12:55.363Z,19.65
2022-11-25T02:15:23.722Z,19.83
2022-11-25T02:17:52.731Z,18.02
2022-11-25T02:20:24.840Z,17.30
2022-11-25T02:23:25.807Z,20.42
2022-11-25T02:25:56.677Z,12.23
2022-11-25T02:28:27.689Z,17.20
2022-11-25T02:30:57.131Z,18.13
2022-11-25T02:33:26.331Z,14.13
2022-11-25T02:36:00.742Z,14.25
2022-11-25T02:38:33.650Z,16.67
2022-11-25T02:41:25.423Z,17.52
2022-11-25T02:44:00.599Z,15.05
2022-11-25T02:46:29.480Z,12.88
2022-11-25T02:49:14.792Z,15.48
2022-11-25T02:51:45.335Z,22.52
2022-11-25T02:54:14.813Z,12.73
2022-11-25T02:56:43.750Z,12.90
2022-11-25T02:59:12.624Z,17.58
2022-11-25T03:01:41.660Z,14.50
2022-11-25T03:04:11.516Z,9.65
2022-11-25T03:06:39.916Z,17.20
2022-11-25T03:09:08.755Z,17.45
2022-11-25T03:11:58.711Z,20.73
2022-11-25T03:14:28.149Z,17.02
2022-11-25T03:16:56.489Z,13.43
2022-11-25T03:21:55.869Z,16.80
2022-11-25T03:24:24.197Z,16.50
2022-11-25T03:26:52.501Z,12.27
2022-11-25T03:29:21.049Z,21.27
2022-11-25T03:31:49.865Z,19.60
2022-11-25T03:34:18.471Z,18.70
2022-11-25T03:36:46.967Z,15.50
2022-11-25T03:39:15.311Z,15.27
2022-11-25T03:41:43.832Z,20.63
2022-11-25T03:44:14.262Z,18.08
2022-11-25T03:46:43.720Z,15.95
2022-11-25T03:49:13.561Z,23.52
2022-11-25T03:51:42.005Z,19.40
2022-11-25T03:54:10.523Z,13.50
2022-11-25T03:56:57.050Z,25.70
2022-11-25T03:59:25.500Z,25.02
2022-11-25T04:01:53.990Z,21.85
2022-11-25T04:04:24.086Z,13.52
2022-11-25T04:06:52.568Z,24.77
2022-11-25T04:09:21.123Z,17.85
2022-11-25T04:12:08.354Z,20.25
2022-11-25T04:14:48.543Z,20.95
2022-11-25T04:17:16.900Z,25.05
2022-11-25T04:19:46.213Z,16.95
2022-11-25T04:22:15.294Z,18.27
2022-11-25T04:24:46.133Z,19.83
2022-11-25T04:27:21.924Z,23.45
2022-11-25T04:29:50.411Z,18.55
2022-11-25T04:32:20.881Z,13.95
2022-11-25T04:34:49.748Z,24.55
2022-11-25T04:37:19.433Z,14.77
2022-11-25T04:39:47.841Z,21.20
2022-11-25T04:42:31.675Z,29.48
2022-11-25T04:47:54.847Z,19.20
2022-11-25T04:50:24.098Z,20.83
2022-11-25T04:52:59.570Z,21.40
2022-11-25T04:55:29.110Z,23.80
2022-11-25T04:57:58.003Z,29.25
2022-11-25T05:00:26.556Z,19.65
2022-11-25T05:02:55.422Z,20.08
2022-11-25T05:05:25.346Z,20.17
2022-11-25T05:07:53.675Z,20.27
2022-11-25T05:10:22.547Z,29.27
2022-11-25T05:12:52.168Z,24.73
2022-11-25T05:15:23.551Z,28.38
2022-11-25T05:17:52.042Z,23.48
2022-11-25T05:20:32.758Z,18.70
2022-11-25T05:23:04.424Z,28.13
2022-11-25T05:25:32.800Z,19.10
2022-11-25T05:28:19.670Z,24.55
2022-11-25T05:30:48.157Z,17.80
2022-11-25T05:33:17.601Z,23.00
2022-11-25T05:35:57.860Z,21.73
2022-11-25T05:38:30.700Z,19.77
2022-11-25T05:41:05.686Z,24.48
2022-11-25T05:43:35.265Z,27.42
2022-11-25T05:46:07.687Z,17.85
2022-11-25T05:48:37.612Z,22.15
2022-11-25T05:51:09.050Z,18.60
2022-11-25T05:53:37.586Z,19.00
2022-11-25T05:56:06.943Z,19.90
2022-11-25T05:59:10.641Z,28.48
2022-11-25T06:01:53.749Z,32.63
2022-11-25T06:04:22.018Z,22.90
2022-11-25T06:06:50.350Z,22.05
2022-11-25T06:09:19.371Z,22.52
2022-11-25T06:11:47.783Z,20.63
2022-11-25T06:14:19.996Z,22.50
2022-11-25T06:16:51.903Z,24.05
2022-11-25T06:19:28.662Z,23.98
2022-11-25T06:21:56.976Z,27.38
2022-11-25T06:24:29.041Z,22.70
2022-11-25T06:27:01.861Z,23.23
2022-11-25T06:29:30.566Z,32.53
2022-11-25T06:31:58.939Z,22.60
2022-11-25T06:34:44.721Z,25.48
2022-11-25T06:37:24.927Z,30.33
2022-11-25T06:39:53.407Z,27.08
2022-11-25T06:42:21.658Z,34.03
2022-11-25T06:44:50.054Z,32.10
2022-11-25T06:47:18.574Z,28.52
2022-11-25T06:49:46.850Z,24.65
2022-11-25T06:52:15.381Z,28.65
2022-11-25T06:54:43.833Z,32.25
2022-11-25T06:57:16.231Z,29.10
2022-11-25T06:59:45.310Z,29.08
2022-11-25T07:02:14.469Z,27.90
2022-11-25T07:04:43.106Z,26.17
2022-11-25T07:07:13.411Z,23.38
2022-11-25T07:09:41.887Z,31.88
2022-11-25T07:12:12.400Z,24.15
2022-11-25T07:14:40.903Z,32.75
2022-11-25T07:17:12.216Z,26.30
2022-11-25T07:19:41.019Z,30.13
2022-11-25T07:22:09.265Z,33.28
2022-11-25T07:24:37.905Z,22.50
2022-11-25T07:27:06.947Z,29.33
2022-11-25T07:29:57.934Z,30.02
2022-11-25T07:32:24.401Z,32.35
2022-11-25T07:34:52.781Z,25.50
2022-11-25T07:37:21.528Z,23.50
2022-11-25T07:39:49.752Z,29.33
2022-11-25T07:42:18.052Z,30.20
2022-11-25T07:44:46.411Z,21.48
2022-11-25T07:47:37.937Z,23.83
2022-11-25T07:50:07.062Z,25.52
2022-11-25T07:52:38.053Z,25.05
2022-11-25T07:55:06.908Z,26.35
2022-11-25T07:57:35.206Z,24.10
2022-11-25T08:00:05.190Z,23.98
2022-11-25T08:02:40.608Z,22.88
2022-11-25T08:05:09.720Z,23.33
2022-11-25T08:07:38.083Z,23.95
2022-11-25T08:10:06.468Z,22.90
2022-11-25T08:12:35.996Z,23.63
2022-11-25T08:15:04.662Z,18.60
2022-11-25T08:17:33.457Z,20.20
2022-11-25T08:20:01.887Z,16.13
2022-11-25T08:22:30.266Z,21.13
2022-11-25T08:24:58.578Z,23.08
2022-11-25T08:27:27.500Z,14.88
2022-11-25T08:29:55.940Z,21.92
2022-11-25T08:32:24.284Z,20.58
2022-11-25T08:34:52.554Z,19.27
2022-11-25T08:37:20.907Z,16.63
2022-11-25T08:39:52.941Z,19.48
2022-11-25T08:42:22.492Z,17.33
2022-11-25T08:44:55.768Z,19.00
2022-11-25T08:47:24.798Z,16.60
2022-11-25T08:49:54.663Z,18.10
2022-11-25T08:52:23.303Z,19.42
2022-11-25T08:54:51.606Z,19.52
2022-11-25T08:57:20.027Z,16.17
2022-11-25T08:59:48.554Z,18.25
2022-11-25T09:02:23.663Z,16.17
2022-11-25T09:04:52.114Z,13.93
2022-11-25T09:07:20.567Z,17.35
2022-11-25T09:09:49.782Z,17.20
2022-11-25T09:12:18.167Z,16.65
2022-11-25T09:14:46.547Z,16.15
2022-11-25T09:17:16.607Z,14.57
2022-11-25T09:19:44.938Z,14.13
2022-11-25T09:22:13.645Z,12.65
2022-11-25T09:24:44.158Z,14.98
2022-11-25T09:27:13.886Z,12.23
2022-11-25T09:29:42.127Z,11.23
2022-11-25T09:32:10.504Z,11.93
2022-11-25T09:34:39.173Z,10.05
2022-11-25T09:37:07.767Z,15.77
2022-11-25T09:39:36.214Z,15.45
2022-11-25T09:42:47.849Z,14.95
2022-11-25T09:45:41.440Z,11.77
2022-11-25T09:48:13.010Z,12.27
2022-11-25T09:50:53.578Z,13.85
2022-11-25T09:53:24.615Z,9.00
2022-11-25T09:56:02.500Z,15.18
2022-11-25T09:58:39.589Z,10.18
2022-11-25T10:01:16.049Z,9.27
2022-11-25T10:03:54.569Z,11.65
2022-11-25T10:06:30.065Z,14.07
2022-11-25T10:09:12.989Z,11.00
2022-11-25T10:11:52.269Z,12.35
2022-11-25T10:14:45.467Z,9.15
2022-11-25T10:17:33.877Z,8.88
2022-11-25T10:20:17.677Z,12.02
2022-11-25T10:22:49.211Z,9.75
2022-11-25T10:25:35.077Z,11.55
2022-11-25T10:28:31.451Z,13.05
2022-11-25T10:31:18.738Z,7.88
2022-11-25T10:33:54.523Z,11.30
2022-11-25T10:36:39.592Z,9.38
2022-11-25T10:39:12.461Z,8.18
2022-11-25T10:42:03.620Z,9.82
2022-11-25T10:44:40.816Z,8.00
2022-11-25T10:47:19.685Z,9.65
2022-11-25T10:50:25.903Z,11.43
2022-11-25T10:53:02.638Z,9.20
2022-11-25T10:55:32.998Z,5.97
2022-11-25T10:58:26.795Z,12.35
2022-11-25T11:01:18.127Z,12.88
2022-11-25T11:03:52.654Z,7.47
2022-11-25T11:06:38.742Z,11.55
2022-11-25T11:09:34.341Z,10.88
2022-11-25T11:12:23.552Z,10.60
2022-11-25T11:14:53.720Z,8.73
2022-11-25T11:17:36.848Z,11.65
2022-11-25T11:20:08.856Z,12.05
2022-11-25T11:22:46.912Z,15.15
2022-11-25T11:25:21.044Z,9.63
2022-11-25T11:27:49.661Z,9.20
2022-11-25T11:30:21.762Z,9.90
2022-11-25T11:33:06.470Z,17.67
2022-11-25T11:35:56.512Z,10.52
2022-11-25T11:38:42.482Z,10.32
2022-11-25T11:41:17.419Z,12.20
2022-11-25T11:44:07.963Z,13.07
2022-11-25T11:46:55.483Z,11.02
2022-11-25T11:49:36.456Z,7.47
2022-11-25T11:54:52.604Z,13.02
2022-11-25T11:57:44.987Z,11.48
2022-11-25T12:00:16.541Z,12.63
2022-11-25T12:02:57.400Z,12.50
2022-11-25T12:05:30.027Z,14.05
2022-11-25T12:08:09.597Z,12.07
2022-11-25T12:10:55.988Z,11.50
2022-11-25T12:13:35.964Z,9.32
2022-11-25T12:16:13.488Z,13.35
2022-11-25T12:19:03.654Z,10.23
2022-11-25T12:21:50.976Z,13.95
2022-11-25T12:24:48.848Z,8.15
2022-11-25T12:27:23.577Z,12.27
2022-11-25T12:30:10.385Z,17.38
2022-11-25T12:33:01.800Z,9.85
2022-11-25T12:36:01.436Z,9.40
2022-11-25T12:38:48.025Z,17.73
2022-11-25T12:41:50.565Z,13.25
2022-11-25T12:44:49.542Z,13.80
2022-11-25T12:47:18.390Z,11.75
2022-11-25T12:49:49.530Z,14.93
2022-11-25T12:52:23.917Z,13.77
2022-11-25T12:55:10.254Z,11.23
2022-11-25T12:57:57.312Z,13.45
2022-11-25T13:00:42.810Z,15.63
2022-11-25T13:03:20.826Z,12.68
2022-11-25T13:06:06.740Z,9.70
2022-11-25T13:09:09.005Z,12.35
2022-11-25T13:12:11.891Z,12.57
2022-11-25T13:15:18.394Z,12.13
2022-11-25T13:17:49.861Z,9.43
2022-11-25T13:20:27.469Z,9.52
2022-11-25T13:23:07.706Z,10.77
2022-11-25T13:25:39.196Z,13.85
2022-11-25T13:28:36.800Z,13.18
2022-11-25T13:31:33.038Z,13.57
2022-11-25T13:34:09.422Z,11.80
2022-11-25T13:36:55.488Z,13.25
2022-11-25T13:39:23.709Z,7.80
2022-11-25T13:42:20.502Z,16.40
2022-11-25T13:44:58.311Z,16.63
2022-11-25T13:47:44.987Z,15.75
2022-11-25T13:50:21.725Z,20.40
2022-11-25T13:52:59.624Z,15.30
2022-11-25T13:55:36.864Z,15.05
2022-11-25T13:58:11.296Z,13.50
2022-11-25T14:00:49.541Z,14.90
2022-11-25T14:03:20.966Z,15.38
2022-11-25T14:06:01.638Z,15.40
2022-11-25T14:08:46.690Z,19.83
2022-11-25T14:11:18.106Z,15.25
2022-11-25T14:14:08.113Z,14.20
2022-11-25T14:17:01.378Z,14.93
2022-11-25T14:19:52.269Z,13.23
2022-11-25T14:22:49.514Z,16.75
2022-11-25T14:25:27.784Z,15.40
2022-11-25T14:28:11.061Z,13.43
2022-11-25T14:30:53.568Z,20.08
2022-11-25T14:33:33.207Z,16.27
2022-11-25T14:36:19.652Z,13.60
2022-11-25T14:38:57.425Z,16.00
2022-11-25T14:41:32.766Z,11.80
2022-11-25T14:44:06.841Z,15.52
2022-11-25T14:46:35.276Z,26.30
2022-11-25T14:49:07.653Z,17.83
2022-11-25T14:51:42.856Z,12.93
2022-11-25T14:54:11.591Z,16.55
2022-11-25T14:56:40.843Z,17.40
2022-11-25T14:59:11.111Z,18.45
2022-11-25T15:01:50.783Z,17.67
2022-11-25T15:04:23.940Z,11.10
2022-11-25T15:06:58.122Z,14.65
2022-11-25T15:09:28.048Z,16.33
2022-11-25T15:12:04.050Z,19.58
2022-11-25T15:14:36.158Z,15.95
2022-11-25T15:17:28.674Z,16.20
2022-11-25T15:20:01.404Z,11.70
2022-11-25T15:22:29.907Z,19.13
2022-11-25T15:25:13.023Z,13.30
2022-11-25T15:27:47.270Z,19.25
2022-11-25T15:30:23.347Z,16.05
2022-11-25T15:32:53.100Z,14.30
2022-11-25T15:35:25.639Z,16.50
2022-11-25T15:37:54.673Z,16.20
2022-11-25T15:40:37.619Z,20.05
2022-11-25T15:43:23.456Z,17.25
2022-11-25T15:45:57.662Z,15.00
2022-11-25T15:48:35.403Z,14.57
2022-11-25T15:51:07.103Z,11.95
2022-11-25T15:53:37.762Z,18.83
2022-11-25T15:56:11.218Z,14.73
2022-11-25T15:58:42.539Z,12.10
2022-11-25T16:01:20.030Z,18.02
2022-11-25T16:03:50.909Z,18.77
2022-11-25T16:06:23.865Z,19.50
2022-11-25T16:09:04.120Z,9.40
2022-11-25T16:11:45.099Z,10.85
2022-11-25T16:14:35.226Z,20.13
2022-11-25T16:17:12.575Z,16.60
2022-11-25T16:19:44.598Z,14.90
2022-11-25T16:22:16.775Z,13.15
2022-11-25T16:26:26.763Z,22.42
2022-11-25T16:27:45.324Z,23.77
2022-11-25T16:30:20.120Z,12.77
2022-11-25T16:32:48.395Z,16.77
2022-11-25T16:35:22.306Z,17.55
2022-11-25T16:37:50.593Z,14.38
2022-11-25T16:40:19.209Z,17.30
2022-11-25T16:42:49.903Z,22.70
2022-11-25T16:47:48.001Z,12.18
2022-11-25T16:50:18.522Z,16.98
2022-11-25T16:52:47.335Z,18.55
2022-11-25T16:55:19.466Z,15.98
2022-11-25T16:57:48.226Z,16.77
2022-11-25T17:00:17.438Z,19.38
2022-11-25T17:02:45.947Z,18.45
2022-11-25T17:05:25.819Z,21.08
2022-11-25T17:07:54.703Z,19.30
2022-11-25T17:10:23.242Z,16.98
2022-11-25T17:12:52.177Z,24.58
2022-11-25T17:15:27.253Z,18.95
2022-11-25T17:17:56.050Z,20.27
2022-11-25T17:20:25.646Z,19.05
2022-11-25T17:22:54.981Z,18.52
2022-11-25T17:25:25.603Z,24.20
2022-11-25T17:27:55.076Z,23.77
2022-11-25T17:30:26.141Z,22.00
2022-11-25T17:33:01.585Z,13.02
2022-11-25T17:35:30.318Z,18.23
2022-11-25T17:38:00.843Z,12.27
2022-11-25T17:40:29.171Z,23.50
2022-11-25T17:42:57.500Z,22.75
2022-11-25T17:45:25.902Z,24.17
2022-11-25T17:47:54.165Z,22.35
2022-11-25T17:50:25.740Z,17.75
2022-11-25T17:52:54.006Z,20.75
2022-11-25T17:55:22.948Z,16.48
2022-11-25T17:57:51.843Z,21.38
2022-11-25T18:00:22.172Z,21.15
2022-11-25T18:02:51.071Z,18.67
2022-11-25T18:05:25.165Z,26.48
2022-11-25T18:07:53.693Z,30.25
2022-11-25T18:10:26.147Z,21.77
2022-11-25T18:12:56.285Z,19.13
2022-11-25T18:15:31.025Z,22.55
2022-11-25T18:18:30.265Z,27.02
2022-11-25T18:20:58.633Z,28.13
2022-11-25T18:23:27.055Z,22.95
2022-11-25T18:25:57.507Z,26.05
2022-11-25T18:28:29.086Z,21.08
2022-11-25T18:31:04.297Z,25.50
2022-11-25T18:33:34.960Z,18.25
2022-11-25T18:38:31.834Z,19.55
2022-11-25T18:41:01.561Z,30.13
2022-11-25T18:43:29.877Z,19.08
2022-11-25T18:45:58.282Z,23.63
2022-11-25T18:48:27.372Z,20.67
2022-11-25T18:50:57.074Z,24.27
2022-11-25T18:53:25.681Z,33.17
2022-11-25T18:55:54.267Z,31.23
2022-11-25T18:58:27.142Z,22.35
2022-11-25T19:01:04.312Z,19.80
2022-11-25T19:03:32.797Z,21.73
2022-11-25T19:06:03.218Z,16.23
2022-11-25T19:11:00.406Z,21.75
2022-11-25T19:13:33.523Z,23.42
2022-11-25T19:16:13.733Z,21.42
2022-11-25T19:18:44.863Z,22.33
2022-11-25T19:21:21.042Z,24.33
2022-11-25T19:23:50.007Z,30.67
2022-11-25T19:26:24.556Z,17.00
2022-11-25T19:29:00.590Z,30.80
2022-11-25T19:31:32.324Z,18.55
2022-11-25T19:34:01.752Z,23.35
2022-11-25T19:36:31.667Z,27.75
2022-11-25T19:38:59.946Z,20.25
2022-11-25T19:41:28.261Z,23.50
2022-11-25T19:43:56.538Z,34.78
2022-11-25T19:46:46.339Z,25.90
2022-11-25T19:49:19.984Z,26.67
2022-11-25T19:51:49.020Z,15.95
2022-11-25T19:54:18.843Z,21.98
2022-11-25T19:56:47.160Z,24.03
2022-11-25T19:59:15.562Z,17.70
2022-11-25T20:01:45.472Z,21.25
2022-11-25T20:04:20.418Z,22.48
2022-11-25T20:06:49.677Z,20.60
2022-11-25T20:09:18.037Z,23.95
2022-11-25T20:11:47.437Z,21.95
2022-11-25T20:14:15.838Z,19.70
2022-11-25T20:16:44.386Z,18.33
2022-11-25T20:19:17.921Z,23.60
2022-11-25T20:21:46.648Z,19.15
2022-11-25T20:24:18.980Z,23.77
2022-11-25T20:26:48.919Z,23.58
2022-11-25T20:29:22.656Z,18.85
2022-11-25T20:31:55.966Z,29.55
2022-11-25T20:34:24.816Z,17.48
2022-11-25T20:36:53.267Z,17.35
2022-11-25T20:39:21.615Z,17.77
2022-11-25T20:41:52.439Z,18.13
2022-11-25T20:44:21.485Z,21.73
2022-11-25T20:46:52.545Z,20.02
2022-11-25T20:49:25.635Z,25.25
2022-11-25T20:51:54.399Z,30.17
2022-11-25T20:54:25.650Z,18.00
2022-11-25T20:56:57.200Z,26.50
2022-11-25T20:59:25.731Z,26.23
2022-11-25T21:01:54.823Z,22.77
2022-11-25T21:04:24.407Z,16.85
2022-11-25T21:06:52.878Z,22.83
2022-11-25T21:09:24.963Z,29.58
2022-11-25T21:11:53.481Z,20.40
2022-11-25T21:14:21.901Z,24.77
2022-11-25T21:16:50.321Z,25.35
2022-11-25T21:19:18.872Z,22.05
2022-11-25T21:21:49.639Z,22.15
2022-11-25T21:24:40.961Z,20.17
2022-11-25T21:27:15.467Z,19.40
2022-11-25T21:29:45.127Z,24.00
2022-11-25T21:32:26.256Z,20.33
2022-11-25T21:34:56.824Z,15.90
2022-11-25T21:37:32.842Z,25.77
2022-11-25T21:40:01.925Z,22.40
2022-11-25T21:42:33.221Z,29.98
2022-11-25T21:45:01.902Z,26.67
2022-11-25T21:47:31.224Z,27.02
2022-11-25T21:50:02.001Z,25.77
2022-11-25T21:52:30.708Z,29.13
2022-11-25T21:55:00.492Z,21.40
2022-11-25T21:57:29.934Z,23.83
2022-11-25T21:59:59.914Z,33.55
2022-11-25T22:02:28.553Z,20.45
2022-11-25T22:04:58.459Z,25.08
2022-11-25T22:07:30.801Z,19.85
2022-11-25T22:09:59.528Z,22.92
2022-11-25T22:12:30.121Z,20.00
2022-11-25T22:15:01.116Z,16.73
2022-11-25T22:17:29.983Z,22.50
2022-11-25T22:19:58.639Z,17.92
2022-11-25T22:22:28.348Z,15.05
2022-11-25T22:24:56.837Z,16.27
2022-11-25T22:27:28.518Z,26.23
2022-11-25T22:29:56.964Z,22.48
2022-11-25T22:32:25.924Z,27.23
2022-11-25T22:34:55.642Z,23.27
2022-11-25T22:37:24.779Z,18.55
2022-11-25T22:39:53.146Z,17.73
2022-11-25T22:42:26.536Z,16.70
2022-11-25T22:44:57.680Z,21.77
2022-11-25T22:47:44.586Z,14.85
2022-11-25T22:50:28.693Z,18.90
2022-11-25T22:52:57.833Z,25.95
2022-11-25T22:55:33.265Z,12.68
2022-11-25T22:58:04.813Z,13.95
2022-11-25T23:00:37.644Z,16.10
2022-11-25T23:03:12.983Z,25.65
2022-11-25T23:05:41.482Z,15.68
2022-11-25T23:08:13.979Z,16.20
2022-11-25T23:10:42.822Z,23.35
2022-11-25T23:13:12.298Z,14.45
2022-11-25T23:15:46.736Z,15.60
2022-11-25T23:18:24.635Z,26.48
2022-11-25T23:20:53.323Z,14.80
2022-11-25T23:23:24.527Z,15.88
2022-11-25T23:25:53.650Z,21.02
2022-11-25T23:28:22.128Z,20.73
2022-11-25T23:30:53.235Z,17.48
2022-11-25T23:33:38.928Z,22.30
2022-11-25T23:36:14.198Z,20.55
2022-11-25T23:38:46.484Z,19.88
2022-11-25T23:41:21.701Z,14.27
2022-11-25T23:43:50.286Z,19.80
2022-11-25T23:46:24.531Z,17.15
2022-11-25T23:48:57.393Z,22.88
2022-11-25T23:51:28.306Z,15.65
2022-11-25T23:56:29.553Z,28.15
2022-11-25T23:58:58.108Z,15.57
